createdAt,value
2017-02-18T00:00:47.203Z,1004.5
2017-02-18T00:01:47.231Z,1004.46
2017-02-18T00:02:47.257Z,1004.48
2017-02-18T00:03:47.286Z,1004.43
2017-02-18T00:04:47.316Z,1004.44
2017-02-18T00:05:47.339Z,1004.48
2017-02-18T00:06:47.364Z,1004.51
2017-02-18T00:07:47.393Z,1004.47
2017-02-18T00:08:47.422Z,1004.46
2017-02-18T00:09:47.450Z,1004.46
2017-02-18T00:10:47.484Z,1004.45
2017-02-18T00:11:47.503Z,1004.48
2017-02-18T00:12:47.532Z,1004.47
2017-02-18T00:13:47.562Z,1004.42
2017-02-18T00:14:47.586Z,1004.41
2017-02-18T00:15:47.615Z,1004.43
2017-02-18T00:16:47.644Z,1004.43
2017-02-18T00:17:47.671Z,1004.4
2017-02-18T00:18:47.693Z,1004.39
2017-02-18T00:19:47.726Z,1004.36
2017-02-18T00:20:47.749Z,1004.38
2017-02-18T00:21:47.778Z,1004.32
2017-02-18T00:22:47.807Z,1004.36
2017-02-18T00:23:47.828Z,1004.32
2017-02-18T00:24:47.862Z,1004.29
2017-02-18T00:25:47.890Z,1004.31
2017-02-18T00:26:47.919Z,1004.3
2017-02-18T00:27:47.947Z,1004.28
2017-02-18T00:28:47.985Z,1004.28
2017-02-18T00:29:47.999Z,1004.29
2017-02-18T00:30:48.027Z,1004.28
2017-02-18T00:31:48.055Z,1004.23
2017-02-18T00:32:48.085Z,1004.22
2017-02-18T00:33:48.107Z,1004.25
2017-02-18T00:34:48.138Z,1004.26
2017-02-18T00:35:48.164Z,1004.23
2017-02-18T00:36:48.190Z,1004.24
2017-02-18T00:37:48.219Z,1004.27
2017-02-18T00:38:48.244Z,1004.23
2017-02-18T00:39:48.273Z,1004.21
2017-02-18T00:40:48.301Z,1004.24
2017-02-18T00:41:48.327Z,1004.23
2017-02-18T00:42:48.356Z,1004.2
2017-02-18T00:43:48.384Z,1004.26
2017-02-18T00:44:48.409Z,1004.27
2017-02-18T00:45:48.438Z,1004.26
2017-02-18T00:46:48.470Z,1004.23
2017-02-18T00:47:48.493Z,1004.23
2017-02-18T00:48:48.515Z,1004.25
2017-02-18T00:49:48.549Z,1004.23
2017-02-18T00:50:48.579Z,1004.26
2017-02-18T00:51:48.599Z,1004.18
2017-02-18T00:52:48.627Z,1004.2
2017-02-18T00:53:48.906Z,1004.21
2017-02-18T00:54:48.688Z,1004.21
2017-02-18T00:55:48.709Z,1004.17
2017-02-18T00:56:48.738Z,1004.19
2017-02-18T00:57:48.765Z,1004.21
2017-02-18T00:58:49.043Z,1004.24
2017-02-18T00:59:48.820Z,1004.23
2017-02-18T01:00:48.844Z,1004.21
2017-02-18T01:01:48.873Z,1004.23
2017-02-18T01:02:48.903Z,1004.22
2017-02-18T01:03:48.930Z,1004.2
2017-02-18T01:04:48.956Z,1004.18
2017-02-18T01:05:48.989Z,1004.19
2017-02-18T01:06:49.015Z,1004.22
2017-02-18T01:07:49.034Z,1004.2
2017-02-18T01:08:49.067Z,1004.22
2017-02-18T01:09:49.092Z,1004.25
2017-02-18T01:10:49.121Z,1004.21
2017-02-18T01:11:49.153Z,1004.24
2017-02-18T01:12:49.174Z,1004.23
2017-02-18T01:13:49.202Z,1004.23
2017-02-18T01:14:49.223Z,1004.16
2017-02-18T01:15:49.256Z,1004.16
2017-02-18T01:16:49.285Z,1004.18
2017-02-18T01:17:49.311Z,1004.18
2017-02-18T01:18:49.334Z,1004.18
2017-02-18T01:19:49.367Z,1004.14
2017-02-18T01:20:49.392Z,1004.15
2017-02-18T01:21:49.420Z,1004.19
2017-02-18T01:22:49.449Z,1004.19
2017-02-18T01:23:49.474Z,1004.19
2017-02-18T01:24:49.503Z,1004.2
2017-02-18T01:25:49.527Z,1004.23
2017-02-18T01:26:49.556Z,1004.22
2017-02-18T01:27:49.585Z,1004.21
2017-02-18T01:28:49.610Z,1004.21
2017-02-18T01:29:49.638Z,1004.22
2017-02-18T01:30:49.668Z,1004.18
2017-02-18T01:31:49.696Z,1004.2
2017-02-18T01:32:49.725Z,1004.21
2017-02-18T01:33:49.750Z,1004.2
2017-02-18T01:34:49.771Z,1004.16
2017-02-18T01:35:49.798Z,1004.2
2017-02-18T01:36:49.828Z,1004.18
2017-02-18T01:37:49.856Z,1004.21
2017-02-18T01:38:49.885Z,1004.24
2017-02-18T01:39:49.910Z,1004.23
2017-02-18T01:40:49.938Z,1004.27
2017-02-18T01:41:49.962Z,1004.21
2017-02-18T01:42:49.992Z,1004.2
2017-02-18T01:43:50.016Z,1004.2
2017-02-18T01:44:50.045Z,1004.19
2017-02-18T01:45:50.074Z,1004.17
2017-02-18T01:46:50.100Z,1004.16
2017-02-18T01:47:50.127Z,1004.09
2017-02-18T01:48:50.157Z,1004.12
2017-02-18T01:49:50.181Z,1004.13
2017-02-18T01:50:50.214Z,1004.11
2017-02-18T01:51:50.233Z,1004.07
2017-02-18T01:52:50.267Z,1004.06
2017-02-18T01:53:50.286Z,1004.03
2017-02-18T01:54:50.315Z,1004.03
2017-02-18T01:55:50.346Z,1004
2017-02-18T01:56:50.370Z,1004.02
2017-02-18T01:57:50.399Z,1004.02
2017-02-18T01:58:50.424Z,1003.99
2017-02-18T01:59:50.452Z,1003.95
2017-02-18T02:00:50.482Z,1003.98
2017-02-18T02:01:50.510Z,1004.01
2017-02-18T02:02:50.535Z,1004
2017-02-18T02:03:50.563Z,1004.03
2017-02-18T02:04:50.588Z,1004.07
2017-02-18T02:05:50.617Z,1004.04
2017-02-18T02:06:50.646Z,1004.03
2017-02-18T02:07:50.671Z,1003.99
2017-02-18T02:08:50.700Z,1003.99
2017-02-18T02:09:50.976Z,1003.96
2017-02-18T02:10:50.757Z,1003.97
2017-02-18T02:11:50.773Z,1003.98
2017-02-18T02:12:50.807Z,1003.97
2017-02-18T02:13:50.834Z,1003.98
2017-02-18T02:14:51.112Z,1003.96
2017-02-18T02:15:50.885Z,1003.97
2017-02-18T02:16:50.917Z,1003.96
2017-02-18T02:17:50.938Z,1003.93
2017-02-18T02:18:50.967Z,1003.95
2017-02-18T02:19:50.995Z,1003.97
2017-02-18T02:20:51.022Z,1003.96
2017-02-18T02:21:51.052Z,1003.93
2017-02-18T02:22:51.079Z,1003.93
2017-02-18T02:23:51.112Z,1003.91
2017-02-18T02:24:51.128Z,1003.9
2017-02-18T02:25:51.160Z,1003.92
2017-02-18T02:26:51.185Z,1003.89
2017-02-18T02:27:51.215Z,1003.89
2017-02-18T02:28:51.238Z,1003.9
2017-02-18T02:29:51.266Z,1003.89
2017-02-18T02:30:51.291Z,1003.85
2017-02-18T02:31:51.320Z,1003.86
2017-02-18T02:32:51.350Z,1003.87
2017-02-18T02:33:51.382Z,1003.85
2017-02-18T02:34:51.403Z,1003.8
2017-02-18T02:35:51.427Z,1003.81
2017-02-18T02:36:51.457Z,1003.83
2017-02-18T02:37:51.485Z,1003.85
2017-02-18T02:38:51.510Z,1003.81
2017-02-18T02:39:51.533Z,1003.83
2017-02-18T02:40:51.571Z,1003.78
2017-02-18T02:41:51.591Z,1003.82
2017-02-18T02:42:51.622Z,1003.78
2017-02-18T02:43:51.642Z,1003.77
2017-02-18T02:44:51.675Z,1003.8
2017-02-18T02:45:51.699Z,1003.76
2017-02-18T02:46:51.728Z,1003.76
2017-02-18T02:47:51.757Z,1003.75
2017-02-18T02:48:51.781Z,1003.73
2017-02-18T02:49:51.822Z,1003.74
2017-02-18T02:50:51.831Z,1003.75
2017-02-18T02:51:51.864Z,1003.67
2017-02-18T02:52:51.888Z,1003.73
2017-02-18T02:53:51.917Z,1003.7
2017-02-18T02:54:51.943Z,1003.69
2017-02-18T02:55:51.970Z,1003.64
2017-02-18T02:56:51.995Z,1003.69
2017-02-18T02:57:52.029Z,1003.67
2017-02-18T02:58:52.053Z,1003.64
2017-02-18T02:59:52.078Z,1003.69
2017-02-18T03:00:52.103Z,1003.67
2017-02-18T03:01:52.133Z,1003.72
2017-02-18T03:02:52.160Z,1003.7
2017-02-18T03:03:52.189Z,1003.74
2017-02-18T03:04:52.214Z,1003.73
2017-02-18T03:05:52.242Z,1003.7
2017-02-18T03:06:52.267Z,1003.69
2017-02-18T03:07:52.296Z,1003.69
2017-02-18T03:08:52.325Z,1003.7
2017-02-18T03:09:52.349Z,1003.7
2017-02-18T03:10:52.374Z,1003.74
2017-02-18T03:11:52.402Z,1003.72
2017-02-18T03:12:52.486Z,1003.74
2017-02-18T03:13:52.461Z,1003.67
2017-02-18T03:14:52.485Z,1003.73
2017-02-18T03:15:52.763Z,1003.69
2017-02-18T03:16:52.539Z,1003.67
2017-02-18T03:17:52.562Z,1003.69
2017-02-18T03:18:52.592Z,1003.71
2017-02-18T03:19:52.617Z,1003.68
2017-02-18T03:20:52.893Z,1003.67
2017-02-18T03:21:52.674Z,1003.71
2017-02-18T03:22:52.698Z,1003.7
2017-02-18T03:23:52.723Z,1003.68
2017-02-18T03:24:52.753Z,1003.68
2017-02-18T03:25:53.030Z,1003.68
2017-02-18T03:26:52.806Z,1003.65
2017-02-18T03:27:52.832Z,1003.66
2017-02-18T03:28:52.863Z,1003.67
2017-02-18T03:29:52.884Z,1003.67
2017-02-18T03:30:53.164Z,1003.69
2017-02-18T03:31:52.946Z,1003.66
2017-02-18T03:32:52.969Z,1003.65
2017-02-18T03:33:53.003Z,1003.64
2017-02-18T03:34:53.022Z,1003.61
2017-02-18T03:35:53.048Z,1003.63
2017-02-18T03:36:53.076Z,1003.61
2017-02-18T03:37:53.105Z,1003.66
2017-02-18T03:38:53.137Z,1003.63
2017-02-18T03:39:53.159Z,1003.61
2017-02-18T03:40:53.186Z,1003.66
2017-02-18T03:41:53.212Z,1003.6
2017-02-18T03:42:53.238Z,1003.62
2017-02-18T03:43:53.266Z,1003.63
2017-02-18T03:44:53.292Z,1003.65
2017-02-18T03:45:53.324Z,1003.64
2017-02-18T03:46:53.353Z,1003.64
2017-02-18T03:47:53.373Z,1003.63
2017-02-18T03:48:53.403Z,1003.61
2017-02-18T03:49:53.431Z,1003.58
2017-02-18T03:50:53.456Z,1003.64
2017-02-18T03:51:53.485Z,1003.64
2017-02-18T03:52:53.510Z,1003.65
2017-02-18T03:53:53.539Z,1003.67
2017-02-18T03:54:53.563Z,1003.74
2017-02-18T03:55:53.592Z,1003.71
2017-02-18T03:56:53.620Z,1003.73
2017-02-18T03:57:53.646Z,1003.66
2017-02-18T03:58:53.669Z,1003.69
2017-02-18T03:59:53.699Z,1003.66
2017-02-18T04:00:53.727Z,1003.67
2017-02-18T04:01:53.752Z,1003.67
2017-02-18T04:02:53.782Z,1003.63
2017-02-18T04:03:53.805Z,1003.62
2017-02-18T04:04:53.834Z,1003.65
2017-02-18T04:05:53.855Z,1003.66
2017-02-18T04:06:53.888Z,1003.68
2017-02-18T04:07:53.917Z,1003.69
2017-02-18T04:08:53.938Z,1003.67
2017-02-18T04:09:53.971Z,1003.65
2017-02-18T04:10:53.998Z,1003.68
2017-02-18T04:11:54.272Z,1003.71
2017-02-18T04:12:54.045Z,1003.67
2017-02-18T04:13:54.076Z,1003.65
2017-02-18T04:14:54.102Z,1003.71
2017-02-18T04:15:54.130Z,1003.69
2017-02-18T04:16:54.403Z,1003.63
2017-02-18T04:17:54.182Z,1003.68
2017-02-18T04:18:54.209Z,1003.65
2017-02-18T04:19:54.238Z,1003.7
2017-02-18T04:20:54.263Z,1003.63
2017-02-18T04:21:54.538Z,1003.67
2017-02-18T04:22:54.321Z,1003.73
2017-02-18T04:23:54.340Z,1003.69
2017-02-18T04:24:54.369Z,1003.7
2017-02-18T04:25:54.398Z,1003.72
2017-02-18T04:26:54.675Z,1003.71
2017-02-18T04:27:54.451Z,1003.72
2017-02-18T04:28:54.475Z,1003.75
2017-02-18T04:29:54.504Z,1003.73
2017-02-18T04:30:54.534Z,1003.76
2017-02-18T04:31:54.807Z,1003.77
2017-02-18T04:32:54.584Z,1003.79
2017-02-18T04:33:54.615Z,1003.81
2017-02-18T04:34:54.635Z,1003.76
2017-02-18T04:35:54.666Z,1003.77
2017-02-18T04:36:54.947Z,1003.79
2017-02-18T04:37:54.720Z,1003.79
2017-02-18T04:38:54.748Z,1003.8
2017-02-18T04:39:54.770Z,1003.81
2017-02-18T04:40:54.798Z,1003.82
2017-02-18T04:41:55.078Z,1003.8
2017-02-18T04:42:54.851Z,1003.82
2017-02-18T04:43:54.883Z,1003.83
2017-02-18T04:44:54.909Z,1003.86
2017-02-18T04:45:54.938Z,1003.85
2017-02-18T04:46:55.214Z,1003.85
2017-02-18T04:47:54.991Z,1003.88
2017-02-18T04:48:55.015Z,1003.88
2017-02-18T04:49:55.045Z,1003.81
2017-02-18T04:50:55.066Z,1003.83
2017-02-18T04:51:55.103Z,1003.84
2017-02-18T04:52:55.124Z,1003.82
2017-02-18T04:53:55.151Z,1003.86
2017-02-18T04:54:55.172Z,1003.82
2017-02-18T04:55:55.205Z,1003.81
2017-02-18T04:56:55.229Z,1003.77
2017-02-18T04:57:55.257Z,1003.76
2017-02-18T04:58:55.283Z,1003.75
2017-02-18T04:59:55.307Z,1003.77
2017-02-18T05:00:55.331Z,1003.75
2017-02-18T05:01:55.366Z,1003.75
2017-02-18T05:02:55.390Z,1003.8
2017-02-18T05:03:55.419Z,1003.8
2017-02-18T05:04:55.443Z,1003.79
2017-02-18T05:05:55.473Z,1003.77
2017-02-18T05:06:55.497Z,1003.78
2017-02-18T05:07:55.526Z,1003.78
2017-02-18T05:08:55.555Z,1003.79
2017-02-18T05:09:55.579Z,1003.8
2017-02-18T05:10:55.608Z,1003.79
2017-02-18T05:11:55.629Z,1003.79
2017-02-18T05:12:55.663Z,1003.78
2017-02-18T05:13:55.686Z,1003.76
2017-02-18T05:14:55.716Z,1003.78
2017-02-18T05:15:55.741Z,1003.78
2017-02-18T05:16:55.768Z,1003.79
2017-02-18T05:17:55.794Z,1003.8
2017-02-18T05:18:55.822Z,1003.82
2017-02-18T05:19:55.847Z,1003.79
2017-02-18T05:20:55.871Z,1003.82
2017-02-18T05:21:55.897Z,1003.77
2017-02-18T05:22:55.930Z,1003.81
2017-02-18T05:23:55.955Z,1003.78
2017-02-18T05:24:55.982Z,1003.77
2017-02-18T05:25:56.012Z,1003.8
2017-02-18T05:26:56.039Z,1003.78
2017-02-18T05:27:56.062Z,1003.79
2017-02-18T05:28:56.090Z,1003.79
2017-02-18T05:29:56.114Z,1003.82
2017-02-18T05:30:56.144Z,1003.81
2017-02-18T05:31:56.167Z,1003.78
2017-02-18T05:32:56.197Z,1003.79
2017-02-18T05:33:56.227Z,1003.78
2017-02-18T05:34:56.247Z,1003.83
2017-02-18T05:35:56.274Z,1003.78
2017-02-18T05:36:56.303Z,1003.8
2017-02-18T05:37:56.581Z,1003.78
2017-02-18T05:38:56.359Z,1003.8
2017-02-18T05:39:56.387Z,1003.86
2017-02-18T05:40:56.409Z,1003.79
2017-02-18T05:41:56.440Z,1003.78
2017-02-18T05:42:56.717Z,1003.77
2017-02-18T05:43:56.493Z,1003.78
2017-02-18T05:44:56.519Z,1003.74
2017-02-18T05:45:56.547Z,1003.74
2017-02-18T05:46:56.571Z,1003.71
2017-02-18T05:47:56.849Z,1003.72
2017-02-18T05:48:56.621Z,1003.66
2017-02-18T05:49:56.649Z,1003.67
2017-02-18T05:50:56.682Z,1003.71
2017-02-18T05:51:56.706Z,1003.7
2017-02-18T05:52:56.989Z,1003.7
2017-02-18T05:53:56.757Z,1003.71
2017-02-18T05:54:56.789Z,1003.7
2017-02-18T05:55:56.815Z,1003.73
2017-02-18T05:56:56.843Z,1003.69
2017-02-18T05:57:57.120Z,1003.68
2017-02-18T05:58:56.889Z,1003.67
2017-02-18T05:59:56.920Z,1003.68
2017-02-18T06:00:56.950Z,1003.69
2017-02-18T06:01:56.971Z,1003.71
2017-02-18T06:02:57.255Z,1003.69
2017-02-18T06:03:57.029Z,1003.71
2017-02-18T06:04:57.058Z,1003.72
2017-02-18T06:05:57.078Z,1003.71
2017-02-18T06:06:57.109Z,1003.66
2017-02-18T06:07:57.395Z,1003.65
2017-02-18T06:08:57.165Z,1003.67
2017-02-18T06:09:57.193Z,1003.67
2017-02-18T06:10:57.218Z,1003.71
2017-02-18T06:11:57.245Z,1003.71
2017-02-18T06:12:57.520Z,1003.71
2017-02-18T06:13:57.295Z,1003.77
2017-02-18T06:14:57.324Z,1003.74
2017-02-18T06:15:57.353Z,1003.75
2017-02-18T06:16:57.374Z,1003.79
2017-02-18T06:17:57.655Z,1003.73
2017-02-18T06:18:57.427Z,1003.74
2017-02-18T06:19:57.461Z,1003.78
2017-02-18T06:20:57.491Z,1003.79
2017-02-18T06:21:57.517Z,1003.78
2017-02-18T06:22:57.793Z,1003.83
2017-02-18T06:23:57.566Z,1003.87
2017-02-18T06:24:57.595Z,1003.86
2017-02-18T06:25:57.621Z,1003.84
2017-02-18T06:26:57.652Z,1003.83
2017-02-18T06:27:57.931Z,1003.8
2017-02-18T06:28:57.707Z,1003.84
2017-02-18T06:29:57.731Z,1003.83
2017-02-18T06:30:57.757Z,1003.84
2017-02-18T06:31:57.787Z,1003.91
2017-02-18T06:32:58.066Z,1003.9
2017-02-18T06:33:57.836Z,1003.91
2017-02-18T06:34:57.869Z,1003.91
2017-02-18T06:35:57.889Z,1003.94
2017-02-18T06:36:57.921Z,1003.94
2017-02-18T06:37:58.202Z,1003.96
2017-02-18T06:38:57.978Z,1003.96
2017-02-18T06:39:58.003Z,1004.01
2017-02-18T06:40:58.030Z,1004.03
2017-02-18T06:41:58.057Z,1004.02
2017-02-18T06:42:58.083Z,1004
2017-02-18T06:43:58.112Z,1004.08
2017-02-18T06:44:58.143Z,1004.02
2017-02-18T06:45:58.168Z,1004.01
2017-02-18T06:46:58.193Z,1004.06
2017-02-18T06:47:58.225Z,1004.04
2017-02-18T06:48:58.245Z,1004.08
2017-02-18T06:49:58.271Z,1004.07
2017-02-18T06:50:58.300Z,1004.04
2017-02-18T06:51:58.329Z,1004.04
2017-02-18T06:52:58.358Z,1004.01
2017-02-18T06:53:58.377Z,1004.06
2017-02-18T06:54:58.411Z,1004.02
2017-02-18T06:55:58.440Z,1004.03
2017-02-18T06:56:58.464Z,1004.06
2017-02-18T06:57:58.488Z,1004.04
2017-02-18T06:58:58.515Z,1004.07
2017-02-18T06:59:58.549Z,1004.08
2017-02-18T07:00:58.568Z,1004.11
2017-02-18T07:01:58.601Z,1004.12
2017-02-18T07:02:58.629Z,1004.13
2017-02-18T07:03:58.655Z,1004.17
2017-02-18T07:04:58.678Z,1004.17
2017-02-18T07:05:58.709Z,1004.16
2017-02-18T07:06:58.736Z,1004.17
2017-02-18T07:07:58.763Z,1004.2
2017-02-18T07:08:58.791Z,1004.22
2017-02-18T07:09:58.815Z,1004.21
2017-02-18T07:10:58.843Z,1004.23
2017-02-18T07:11:58.868Z,1004.2
2017-02-18T07:12:58.900Z,1004.16
2017-02-18T07:13:58.925Z,1004.19
2017-02-18T07:14:58.954Z,1004.26
2017-02-18T07:15:58.979Z,1004.26
2017-02-18T07:16:59.005Z,1004.32
2017-02-18T07:17:59.041Z,1004.28
2017-02-18T07:18:59.061Z,1004.32
2017-02-18T07:19:59.091Z,1004.31
2017-02-18T07:20:59.118Z,1004.3
2017-02-18T07:21:59.144Z,1004.31
2017-02-18T07:22:59.173Z,1004.31
2017-02-18T07:23:59.207Z,1004.32
2017-02-18T07:24:59.225Z,1004.31
2017-02-18T07:25:59.260Z,1004.25
2017-02-18T07:26:59.279Z,1004.26
2017-02-18T07:27:59.313Z,1004.27
2017-02-18T07:28:59.338Z,1004.28
2017-02-18T07:29:59.362Z,1004.28
2017-02-18T07:30:59.391Z,1004.29
2017-02-18T07:31:59.416Z,1004.28
2017-02-18T07:32:59.441Z,1004.29
2017-02-18T07:33:59.468Z,1004.26
2017-02-18T07:34:59.497Z,1004.26
2017-02-18T07:35:59.525Z,1004.3
2017-02-18T07:36:59.556Z,1004.29
2017-02-18T07:37:59.580Z,1004.3
2017-02-18T07:38:59.857Z,1004.29
2017-02-18T07:39:59.637Z,1004.29
2017-02-18T07:40:59.662Z,1004.3
2017-02-18T07:41:59.687Z,1004.3
2017-02-18T07:42:59.721Z,1004.29
2017-02-18T07:44:00.000Z,1004.35
2017-02-18T07:44:59.767Z,1004.28
2017-02-18T07:45:59.797Z,1004.31
2017-02-18T07:46:59.827Z,1004.31
2017-02-18T07:47:59.852Z,1004.28
2017-02-18T07:49:00.129Z,1004.31
2017-02-18T07:49:59.908Z,1004.32
2017-02-18T07:50:59.929Z,1004.32
2017-02-18T07:51:59.962Z,1004.32
2017-02-18T07:52:59.987Z,1004.32
2017-02-18T07:54:00.268Z,1004.3
2017-02-18T07:55:00.045Z,1004.31
2017-02-18T07:56:00.064Z,1004.28
2017-02-18T07:57:00.098Z,1004.33
2017-02-18T07:58:00.127Z,1004.29
2017-02-18T07:59:00.149Z,1004.3
2017-02-18T08:00:00.181Z,1004.31
2017-02-18T08:01:00.205Z,1004.31
2017-02-18T08:02:00.233Z,1004.29
2017-02-18T08:03:00.263Z,1004.33
2017-02-18T08:04:00.288Z,1004.31
2017-02-18T08:05:00.317Z,1004.28
2017-02-18T08:06:00.341Z,1004.3
2017-02-18T08:07:00.368Z,1004.25
2017-02-18T08:08:00.399Z,1004.26
2017-02-18T08:09:00.423Z,1004.24
2017-02-18T08:10:00.452Z,1004.24
2017-02-18T08:11:00.480Z,1004.26
2017-02-18T08:12:00.504Z,1004.29
2017-02-18T08:13:00.535Z,1004.26
2017-02-18T08:14:00.559Z,1004.3
2017-02-18T08:15:00.595Z,1004.29
2017-02-18T08:16:00.617Z,1004.32
2017-02-18T08:17:00.641Z,1004.26
2017-02-18T08:18:00.670Z,1004.27
2017-02-18T08:19:00.698Z,1004.29
2017-02-18T08:20:00.723Z,1004.29
2017-02-18T08:21:00.752Z,1004.27
2017-02-18T08:22:00.781Z,1004.26
2017-02-18T08:23:00.805Z,1004.29
2017-02-18T08:24:00.830Z,1004.29
2017-02-18T08:25:00.863Z,1004.33
2017-02-18T08:26:00.887Z,1004.34
2017-02-18T08:27:00.915Z,1004.33
2017-02-18T08:28:00.941Z,1004.32
2017-02-18T08:29:00.969Z,1004.33
2017-02-18T08:30:00.998Z,1004.33
2017-02-18T08:31:01.027Z,1004.33
2017-02-18T08:32:01.052Z,1004.33
2017-02-18T08:33:01.081Z,1004.36
2017-02-18T08:34:01.105Z,1004.34
2017-02-18T08:35:01.133Z,1004.33
2017-02-18T08:36:01.163Z,1004.34
2017-02-18T08:37:01.188Z,1004.35
2017-02-18T08:38:01.217Z,1004.33
2017-02-18T08:39:01.246Z,1004.39
2017-02-18T08:40:01.269Z,1004.36
2017-02-18T08:41:01.297Z,1004.37
2017-02-18T08:42:01.319Z,1004.41
2017-02-18T08:43:01.353Z,1004.37
2017-02-18T08:44:01.381Z,1004.34
2017-02-18T08:45:01.406Z,1004.35
2017-02-18T08:46:01.435Z,1004.39
2017-02-18T08:47:01.456Z,1004.42
2017-02-18T08:48:01.486Z,1004.4
2017-02-18T08:49:01.517Z,1004.41
2017-02-18T08:50:01.540Z,1004.43
2017-02-18T08:51:01.569Z,1004.42
2017-02-18T08:52:01.599Z,1004.44
2017-02-18T08:53:01.623Z,1004.45
2017-02-18T08:54:01.651Z,1004.44
2017-02-18T08:55:01.677Z,1004.41
2017-02-18T08:56:01.709Z,1004.42
2017-02-18T08:57:01.735Z,1004.41
2017-02-18T08:58:01.756Z,1004.42
2017-02-18T08:59:01.787Z,1004.42
2017-02-18T09:00:01.820Z,1004.43
2017-02-18T09:01:01.841Z,1004.47
2017-02-18T09:02:01.870Z,1004.47
2017-02-18T09:03:01.895Z,1004.47
2017-02-18T09:04:01.925Z,1004.46
2017-02-18T09:05:01.950Z,1004.47
2017-02-18T09:06:01.978Z,1004.48
2017-02-18T09:07:02.006Z,1004.48
2017-02-18T09:08:02.030Z,1004.46
2017-02-18T09:09:02.060Z,1004.49
2017-02-18T09:10:02.337Z,1004.53
2017-02-18T09:11:02.112Z,1004.49
2017-02-18T09:12:02.139Z,1004.47
2017-02-18T09:13:02.166Z,1004.49
2017-02-18T09:14:02.195Z,1004.49
2017-02-18T09:15:02.476Z,1004.49
2017-02-18T09:16:02.249Z,1004.48
2017-02-18T09:17:02.273Z,1004.47
2017-02-18T09:18:02.302Z,1004.5
2017-02-18T09:19:02.330Z,1004.54
2017-02-18T09:20:02.611Z,1004.51
2017-02-18T09:21:02.384Z,1004.51
2017-02-18T09:22:02.414Z,1004.51
2017-02-18T09:23:02.438Z,1004.52
2017-02-18T09:24:02.467Z,1004.53
2017-02-18T09:25:02.747Z,1004.55
2017-02-18T09:26:02.524Z,1004.56
2017-02-18T09:27:02.549Z,1004.54
2017-02-18T09:28:02.573Z,1004.56
2017-02-18T09:29:02.602Z,1004.56
2017-02-18T09:30:02.882Z,1004.57
2017-02-18T09:31:02.656Z,1004.56
2017-02-18T09:32:02.685Z,1004.57
2017-02-18T09:33:02.713Z,1004.53
2017-02-18T09:34:02.743Z,1004.6
2017-02-18T09:35:03.018Z,1004.58
2017-02-18T09:36:02.795Z,1004.57
2017-02-18T09:37:02.819Z,1004.55
2017-02-18T09:38:02.848Z,1004.56
2017-02-18T09:39:02.873Z,1004.58
2017-02-18T09:40:03.154Z,1004.58
2017-02-18T09:41:02.931Z,1004.57
2017-02-18T09:42:02.956Z,1004.54
2017-02-18T09:43:02.986Z,1004.54
2017-02-18T09:44:03.013Z,1004.54
2017-02-18T09:45:03.293Z,1004.54
2017-02-18T09:46:03.072Z,1004.55
2017-02-18T09:47:03.090Z,1004.57
2017-02-18T09:48:03.120Z,1004.58
2017-02-18T09:49:03.149Z,1004.6
2017-02-18T09:50:03.174Z,1004.59
2017-02-18T09:51:03.203Z,1004.57
2017-02-18T09:52:03.231Z,1004.59
2017-02-18T09:53:03.253Z,1004.59
2017-02-18T09:54:03.285Z,1004.6
2017-02-18T09:55:03.314Z,1004.58
2017-02-18T09:56:03.339Z,1004.57
2017-02-18T09:57:03.365Z,1004.55
2017-02-18T09:58:03.397Z,1004.53
2017-02-18T09:59:03.420Z,1004.56
2017-02-18T10:00:03.449Z,1004.58
2017-02-18T10:01:03.474Z,1004.55
2017-02-18T10:02:03.499Z,1004.57
2017-02-18T10:03:03.534Z,1004.57
2017-02-18T10:04:03.557Z,1004.57
2017-02-18T10:05:03.586Z,1004.54
2017-02-18T10:06:03.614Z,1004.55
2017-02-18T10:07:03.637Z,1004.54
2017-02-18T10:08:03.668Z,1004.54
2017-02-18T10:09:03.697Z,1004.56
2017-02-18T10:10:03.720Z,1004.57
2017-02-18T10:11:03.754Z,1004.58
2017-02-18T10:12:03.777Z,1004.58
2017-02-18T10:13:03.799Z,1004.6
2017-02-18T10:14:03.836Z,1004.58
2017-02-18T10:15:03.860Z,1004.61
2017-02-18T10:16:03.886Z,1004.57
2017-02-18T10:17:03.914Z,1004.58
2017-02-18T10:18:03.939Z,1004.53
2017-02-18T10:19:03.962Z,1004.59
2017-02-18T10:20:03.994Z,1004.55
2017-02-18T10:21:04.025Z,1004.59
2017-02-18T10:22:04.048Z,1004.56
2017-02-18T10:23:04.078Z,1004.57
2017-02-18T10:24:04.105Z,1004.52
2017-02-18T10:25:04.132Z,1004.55
2017-02-18T10:26:04.161Z,1004.56
2017-02-18T10:27:04.187Z,1004.58
2017-02-18T10:28:04.213Z,1004.59
2017-02-18T10:29:04.239Z,1004.59
2017-02-18T10:30:04.267Z,1004.57
2017-02-18T10:31:04.296Z,1004.54
2017-02-18T10:32:04.324Z,1004.58
2017-02-18T10:33:04.349Z,1004.56
2017-02-18T10:34:04.378Z,1004.58
2017-02-18T10:35:04.406Z,1004.52
2017-02-18T10:36:04.436Z,1004.51
2017-02-18T10:37:04.451Z,1004.55
2017-02-18T10:38:04.487Z,1004.57
2017-02-18T10:39:04.510Z,1004.56
2017-02-18T10:40:04.547Z,1004.58
2017-02-18T10:41:04.571Z,1004.53
2017-02-18T10:42:04.594Z,1004.56
2017-02-18T10:43:04.625Z,1004.59
2017-02-18T10:44:04.652Z,1004.56
2017-02-18T10:45:04.678Z,1004.55
2017-02-18T10:46:04.707Z,1004.56
2017-02-18T10:47:04.738Z,1004.56
2017-02-18T10:48:04.758Z,1004.54
2017-02-18T10:49:04.789Z,1004.55
2017-02-18T10:50:04.817Z,1004.55
2017-02-18T10:51:04.843Z,1004.57
2017-02-18T10:52:04.871Z,1004.55
2017-02-18T10:53:04.900Z,1004.6
2017-02-18T10:54:04.929Z,1004.55
2017-02-18T10:55:04.947Z,1004.56
2017-02-18T10:56:04.995Z,1004.55
2017-02-18T10:57:05.007Z,1004.61
2017-02-18T10:58:05.035Z,1004.52
2017-02-18T10:59:05.065Z,1004.56
2017-02-18T11:00:05.088Z,1004.49
2017-02-18T11:01:05.117Z,1004.5
2017-02-18T11:02:05.146Z,1004.47
2017-02-18T11:03:05.171Z,1004.45
2017-02-18T11:04:05.199Z,1004.45
2017-02-18T11:05:05.228Z,1004.43
2017-02-18T11:06:05.251Z,1004.42
2017-02-18T11:07:05.282Z,1004.39
2017-02-18T11:08:05.310Z,1004.43
2017-02-18T11:09:05.336Z,1004.41
2017-02-18T11:10:05.365Z,1004.4
2017-02-18T11:11:05.393Z,1004.42
2017-02-18T11:12:05.422Z,1004.42
2017-02-18T11:13:05.445Z,1004.39
2017-02-18T11:14:05.473Z,1004.38
2017-02-18T11:15:05.504Z,1004.39
2017-02-18T11:16:05.527Z,1004.36
2017-02-18T11:17:05.557Z,1004.34
2017-02-18T11:18:05.583Z,1004.35
2017-02-18T11:19:05.612Z,1004.32
2017-02-18T11:20:05.640Z,1004.33
2017-02-18T11:21:05.665Z,1004.32
2017-02-18T11:22:05.691Z,1004.32
2017-02-18T11:23:05.721Z,1004.3
2017-02-18T11:24:05.750Z,1004.29
2017-02-18T11:25:05.778Z,1004.26
2017-02-18T11:26:06.054Z,1004.25
2017-02-18T11:27:05.832Z,1004.26
2017-02-18T11:28:05.860Z,1004.28
2017-02-18T11:29:05.886Z,1004.22
2017-02-18T11:30:05.915Z,1004.21
2017-02-18T11:31:06.191Z,1004.15
2017-02-18T11:32:05.970Z,1004.09
2017-02-18T11:33:05.996Z,1004.07
2017-02-18T11:34:06.025Z,1004.12
2017-02-18T11:35:06.054Z,1004.12
2017-02-18T11:36:06.330Z,1004.13
2017-02-18T11:37:06.108Z,1004.11
2017-02-18T11:38:06.136Z,1004.11
2017-02-18T11:39:06.160Z,1004.14
2017-02-18T11:40:06.191Z,1004.1
2017-02-18T11:41:06.217Z,1004.07
2017-02-18T11:42:06.247Z,1004.04
2017-02-18T11:43:06.268Z,1004
2017-02-18T11:44:06.300Z,1003.98
2017-02-18T11:45:06.329Z,1003.94
2017-02-18T11:46:06.354Z,1003.91
2017-02-18T11:47:06.379Z,1003.93
2017-02-18T11:48:06.410Z,1003.88
2017-02-18T11:49:06.440Z,1003.88
2017-02-18T11:50:06.466Z,1003.91
2017-02-18T11:51:06.497Z,1003.88
2017-02-18T11:52:06.522Z,1003.87
2017-02-18T11:53:06.544Z,1003.85
2017-02-18T11:54:06.575Z,1003.85
2017-02-18T11:55:06.608Z,1003.86
2017-02-18T11:56:06.633Z,1003.88
2017-02-18T11:57:06.658Z,1003.87
2017-02-18T11:58:06.687Z,1003.86
2017-02-18T11:59:06.716Z,1003.82
2017-02-18T12:00:06.743Z,1003.85
2017-02-18T12:01:06.768Z,1003.81
2017-02-18T12:02:06.797Z,1003.8
2017-02-18T12:03:06.826Z,1003.78
2017-02-18T12:04:06.851Z,1003.76
2017-02-18T12:05:06.877Z,1003.71
2017-02-18T12:06:06.907Z,1003.72
2017-02-18T12:07:06.933Z,1003.68
2017-02-18T12:08:06.961Z,1003.72
2017-02-18T12:09:06.992Z,1003.68